createdAt,value
2023-01-11T00:00:39.067Z,97926.34
2023-01-11T00:03:06.989Z,97925.50
2023-01-11T00:05:41.918Z,97935.78
2023-01-11T00:08:10.114Z,97928.03
2023-01-11T00:10:37.951Z,97928.84
2023-01-11T00:13:05.371Z,97928.69
2023-01-11T00:15:32.275Z,97927.88
2023-01-11T00:17:59.088Z,97922.63
2023-01-11T00:20:26.113Z,97923.38
2023-01-11T00:22:53.020Z,97928.47
2023-01-11T00:25:20.052Z,97929.22
2023-01-11T00:27:49.804Z,97919.75
2023-01-11T00:30:17.952Z,97924.75
2023-01-11T00:32:44.838Z,97922.28
2023-01-11T00:35:12.470Z,97920.56
2023-01-11T00:37:39.966Z,97911.44
2023-01-11T00:40:08.186Z,97908.78
2023-01-11T00:42:53.135Z,97895.97
2023-01-11T00:45:38.575Z,97900.13
2023-01-11T00:48:06.894Z,97897.50
2023-01-11T00:50:40.970Z,97895.66
2023-01-11T00:53:11.374Z,97890.38
2023-01-11T00:55:38.183Z,97868.97
2023-01-11T00:58:05.292Z,97873.13
2023-01-11T01:00:32.079Z,97870.47
2023-01-11T01:02:58.788Z,97877.28
2023-01-11T01:05:25.642Z,97867.81
2023-01-11T01:07:52.747Z,97872.78
2023-01-11T01:10:20.534Z,97865.84
2023-01-11T01:13:06.240Z,97871.75
2023-01-11T01:15:33.854Z,97872.78
2023-01-11T01:18:01.937Z,97879.59
2023-01-11T01:20:28.777Z,97875.16
2023-01-11T01:22:55.537Z,97873.41
2023-01-11T01:25:22.794Z,97871.59
2023-01-11T01:27:49.547Z,97877.47
2023-01-11T01:30:16.704Z,97883.00
2023-01-11T01:32:43.546Z,97868.78
2023-01-11T01:35:10.660Z,97871.44
2023-01-11T01:37:37.559Z,97867.22
2023-01-11T01:40:06.011Z,97863.72
2023-01-11T01:42:33.214Z,97865.31
2023-01-11T01:45:27.477Z,97864.66
2023-01-11T01:48:01.502Z,97857.91
2023-01-11T01:50:43.412Z,97851.84
2023-01-11T01:53:18.028Z,97860.53
2023-01-11T01:55:51.949Z,97849.31
2023-01-11T01:58:34.471Z,97842.22
2023-01-11T02:01:21.399Z,97841.38
2023-01-11T02:03:50.882Z,97832.75
2023-01-11T02:06:21.921Z,97834.34
2023-01-11T02:08:58.751Z,97832.28
2023-01-11T02:11:32.709Z,97836.75
2023-01-11T02:14:08.803Z,97826.44
2023-01-11T02:16:35.662Z,97820.47
2023-01-11T02:19:02.443Z,97825.41
2023-01-11T02:22:22.207Z,97820.25
2023-01-11T02:25:19.079Z,97810.91
2023-01-11T02:28:39.426Z,97822.13
2023-01-11T02:31:30.647Z,97814.41
2023-01-11T02:34:19.336Z,97797.91
2023-01-11T02:37:09.876Z,97796.91
2023-01-11T02:39:44.887Z,97798.50
2023-01-11T02:42:59.201Z,97808.69
2023-01-11T02:45:44.964Z,97796.91
2023-01-11T02:48:23.496Z,97794.16
2023-01-11T02:51:04.195Z,97782.13
2023-01-11T02:53:50.166Z,97778.63
2023-01-11T02:56:23.183Z,97787.09
2023-01-11T02:58:54.033Z,97790.50
2023-01-11T03:01:22.673Z,97789.75
2023-01-11T03:03:51.216Z,97782.94
2023-01-11T03:06:34.392Z,97781.38
2023-01-11T03:09:37.299Z,97781.28
2023-01-11T03:12:57.028Z,97777.13
2023-01-11T03:15:33.093Z,97765.19
2023-01-11T03:18:40.379Z,97766.84
2023-01-11T03:21:28.075Z,97771.16
2023-01-11T03:24:12.505Z,97770.25
2023-01-11T03:27:02.906Z,97759.03
2023-01-11T03:29:38.678Z,97754.78
2023-01-11T03:32:20.485Z,97753.88
2023-01-11T03:35:02.762Z,97747.72
2023-01-11T03:37:47.359Z,97739.91
2023-01-11T03:40:23.579Z,97744.25
2023-01-11T03:43:11.611Z,97747.66
2023-01-11T03:46:08.978Z,97744.16
2023-01-11T03:49:01.417Z,97745.50
2023-01-11T03:51:35.983Z,97732.72
2023-01-11T03:54:07.873Z,97729.22
2023-01-11T03:56:56.136Z,97723.81
2023-01-11T03:59:23.121Z,97722.91
2023-01-11T04:01:53.386Z,97728.13
2023-01-11T04:04:20.248Z,97725.56
2023-01-11T04:06:47.034Z,97716.19
2023-01-11T04:09:13.852Z,97715.16
2023-01-11T04:11:40.758Z,97721.97
2023-01-11T04:14:07.514Z,97719.34
2023-01-11T04:16:34.345Z,97715.50
2023-01-11T04:19:02.808Z,97726.81
2023-01-11T04:21:29.926Z,97730.03
2023-01-11T04:23:56.689Z,97725.50
2023-01-11T04:26:23.454Z,97720.47
2023-01-11T04:28:51.636Z,97714.50
2023-01-11T04:31:19.534Z,97717.00
2023-01-11T04:33:46.271Z,97719.56
2023-01-11T04:36:13.046Z,97710.88
2023-01-11T04:38:39.744Z,97716.75
2023-01-11T04:41:24.822Z,97714.28
2023-01-11T04:43:56.245Z,97711.44
2023-01-11T04:46:26.076Z,97720.00
2023-01-11T04:48:52.987Z,97719.69
2023-01-11T04:51:19.705Z,97711.06
2023-01-11T04:53:51.359Z,97718.06
2023-01-11T04:56:18.970Z,97722.31
2023-01-11T04:58:46.284Z,97715.50
2023-01-11T05:01:17.864Z,97711.69
2023-01-11T05:03:45.731Z,97712.00
2023-01-11T05:06:13.967Z,97707.03
2023-01-11T05:08:46.428Z,97690.72
2023-01-11T05:11:13.907Z,97716.41
2023-01-11T05:13:43.393Z,97701.03
2023-01-11T05:16:26.065Z,97699.19
2023-01-11T05:18:58.961Z,97699.13
2023-01-11T05:21:39.069Z,97689.91
2023-01-11T05:24:10.235Z,97707.03
2023-01-11T05:26:39.914Z,97693.41
2023-01-11T05:29:11.003Z,97700.03
2023-01-11T05:31:40.351Z,97694.97
2023-01-11T05:34:09.939Z,97685.31
2023-01-11T05:36:36.715Z,97675.09
2023-01-11T05:39:05.464Z,97670.94
2023-01-11T05:41:32.811Z,97670.03
2023-01-11T05:44:18.479Z,97667.38
2023-01-11T05:46:45.271Z,97669.69
2023-01-11T05:49:14.307Z,97654.16
2023-01-11T05:51:42.904Z,97650.66
2023-01-11T05:54:13.645Z,97648.00
2023-01-11T05:56:42.416Z,97644.59
2023-01-11T05:59:09.673Z,97639.44
2023-01-11T06:01:36.610Z,97640.16
2023-01-11T06:04:03.487Z,97641.91
2023-01-11T06:06:30.248Z,97630.69
2023-01-11T06:08:56.965Z,97638.34
2023-01-11T06:11:23.799Z,97638.34
2023-01-11T06:13:50.582Z,97639.16
2023-01-11T06:16:20.671Z,97641.50
2023-01-11T06:18:50.745Z,97632.84
2023-01-11T06:21:18.843Z,97626.69
2023-01-11T06:23:50.689Z,97630.56
2023-01-11T06:26:21.651Z,97634.72
2023-01-11T06:28:49.265Z,97632.06
2023-01-11T06:31:17.771Z,97630.94
2023-01-11T06:33:46.099Z,97621.22
2023-01-11T06:36:14.474Z,97626.00
2023-01-11T06:38:41.993Z,97627.56
2023-01-11T06:41:10.833Z,97630.06
2023-01-11T06:43:41.502Z,97628.19
2023-01-11T06:46:16.187Z,97632.38
2023-01-11T06:48:44.236Z,97645.19
2023-01-11T06:51:11.895Z,97643.34
2023-01-11T06:53:39.662Z,97649.22
2023-01-11T06:56:06.985Z,97642.31
2023-01-11T06:58:33.754Z,97651.63
2023-01-11T07:01:00.837Z,97648.06
2023-01-11T07:03:27.762Z,97653.13
2023-01-11T07:05:59.166Z,97645.28
2023-01-11T07:08:27.175Z,97641.50
2023-01-11T07:10:54.744Z,97639.41
2023-01-11T07:13:22.066Z,97637.66
2023-01-11T07:15:50.823Z,97637.50
2023-01-11T07:18:19.487Z,97633.06
2023-01-11T07:20:46.640Z,97631.06
2023-01-11T07:23:13.764Z,97638.81
2023-01-11T07:25:41.066Z,97630.69
2023-01-11T07:28:09.327Z,97630.69
2023-01-11T07:33:27.740Z,97627.00
2023-01-11T07:35:55.165Z,97615.66
2023-01-11T07:38:22.782Z,97621.47
2023-01-11T07:40:49.524Z,97617.03
2023-01-11T07:43:18.116Z,97617.78
2023-01-11T07:45:49.197Z,97620.06
2023-01-11T07:48:27.015Z,97618.25
2023-01-11T07:50:54.844Z,97613.81
2023-01-11T07:53:25.283Z,97620.34
2023-01-11T07:55:52.008Z,97617.66
2023-01-11T07:58:18.765Z,97621.63
2023-01-11T08:00:46.158Z,97619.06
2023-01-11T08:03:13.227Z,97617.19
2023-01-11T08:05:40.576Z,97621.25
2023-01-11T08:08:07.773Z,97622.06
2023-01-11T08:10:35.318Z,97608.88
2023-01-11T08:13:20.762Z,97605.38
2023-01-11T08:15:47.549Z,97610.16
2023-01-11T08:18:14.325Z,97600.53
2023-01-11T08:20:41.486Z,97609.78
2023-01-11T08:23:10.642Z,97606.16
2023-01-11T08:25:38.134Z,97599.44
2023-01-11T08:28:07.702Z,97590.56
2023-01-11T08:30:36.382Z,97581.59
2023-01-11T08:33:07.428Z,97590.81
2023-01-11T08:35:39.099Z,97595.69
2023-01-11T08:38:06.088Z,97597.88
2023-01-11T08:40:32.879Z,97588.91
2023-01-11T08:42:59.787Z,97582.50
2023-01-11T08:45:26.868Z,97593.41
2023-01-11T08:47:54.527Z,97599.19
2023-01-11T08:50:22.625Z,97601.47
2023-01-11T08:52:51.262Z,97589.09
2023-01-11T08:55:19.491Z,97601.72
2023-01-11T08:57:47.227Z,97609.09
2023-01-11T09:00:15.109Z,97601.13
2023-01-11T09:02:42.033Z,97610.31
2023-01-11T09:05:09.493Z,97602.34
2023-01-11T09:07:36.255Z,97603.94
2023-01-11T09:10:04.224Z,97596.19
2023-01-11T09:12:32.706Z,97600.09
2023-01-11T09:15:00.012Z,97594.09
2023-01-11T09:17:26.867Z,97593.16
2023-01-11T09:19:53.624Z,97587.16
2023-01-11T09:22:20.373Z,97598.34
2023-01-11T09:24:47.113Z,97600.00
2023-01-11T09:27:14.190Z,97600.94
2023-01-11T09:29:41.374Z,97599.06
2023-01-11T09:32:08.094Z,97601.44
2023-01-11T09:34:34.991Z,97600.34
2023-01-11T09:37:04.505Z,97603.44
2023-01-11T09:39:31.270Z,97598.88
2023-01-11T09:42:31.579Z,97610.59
2023-01-11T09:45:18.480Z,97592.78
2023-01-11T09:48:11.455Z,97597.75
2023-01-11T09:50:45.405Z,97591.44
2023-01-11T09:53:34.813Z,97594.53
2023-01-11T09:56:11.913Z,97585.66
2023-01-11T09:58:56.823Z,97578.38
2023-01-11T10:01:50.800Z,97570.22
2023-01-11T10:05:10.689Z,97574.97
2023-01-11T10:18:28.389Z,97559.91
2023-01-11T10:18:41.881Z,97546.47
2023-01-11T10:21:18.009Z,97530.19
2023-01-11T10:24:02.728Z,97534.19
2023-01-11T10:26:39.950Z,97531.25
2023-01-11T10:29:41.807Z,97542.97
2023-01-11T10:32:39.938Z,97534.84
2023-01-11T10:35:45.653Z,97525.00
2023-01-11T10:38:54.813Z,97518.31
2023-01-11T10:41:38.416Z,97506.69
2023-01-11T10:44:34.301Z,97497.75
2023-01-11T10:47:04.331Z,97499.19
2023-01-11T10:49:58.777Z,97494.38
2023-01-11T10:52:58.908Z,97490.03
2023-01-11T10:55:57.449Z,97491.66
2023-01-11T10:58:53.569Z,97488.13
2023-01-11T11:01:46.460Z,97493.22
2023-01-11T11:04:45.556Z,97491.44
2023-01-11T11:07:25.859Z,97493.31
2023-01-11T11:10:14.262Z,97493.22
2023-01-11T11:12:59.228Z,97491.22
2023-01-11T11:16:04.632Z,97488.41
2023-01-11T11:18:31.470Z,97484.53
2023-01-11T11:21:10.060Z,97489.28
2023-01-11T11:23:38.868Z,97481.03
2023-01-11T11:26:07.836Z,97481.50
2023-01-11T11:28:34.653Z,97478.81
2023-01-11T11:31:07.733Z,97469.16
2023-01-11T11:33:40.949Z,97475.84
2023-01-11T11:36:13.581Z,97467.97
2023-01-11T11:39:02.013Z,97474.81
2023-01-11T11:41:28.703Z,97463.47
2023-01-11T11:44:18.578Z,97459.94
2023-01-11T11:47:05.765Z,97461.00
2023-01-11T11:49:36.432Z,97452.75
2023-01-11T11:52:06.674Z,97446.38
2023-01-11T11:54:50.628Z,97453.56
2023-01-11T11:57:29.312Z,97439.38
2023-01-11T12:00:25.279Z,97445.63
2023-01-11T12:03:12.563Z,97438.31
2023-01-11T12:06:02.593Z,97434.41
2023-01-11T12:08:33.765Z,97437.34
2023-01-11T12:11:05.405Z,97423.69
2023-01-11T12:13:38.590Z,97431.56
2023-01-11T12:16:20.240Z,97426.59
2023-01-11T12:18:47.177Z,97432.84
2023-01-11T12:21:26.330Z,97433.91
2023-01-11T12:24:17.203Z,97432.25
2023-01-11T12:27:28.108Z,97428.81
2023-01-11T12:30:08.398Z,97418.56
2023-01-11T12:33:09.697Z,97423.13
2023-01-11T12:36:19.031Z,97427.72
2023-01-11T12:39:00.775Z,97422.66
2023-01-11T12:41:58.505Z,97419.13
2023-01-11T12:44:42.331Z,97421.84
2023-01-11T12:47:58.086Z,97418.66
2023-01-11T12:50:43.740Z,97415.44
2023-01-11T12:54:04.089Z,97424.28
2023-01-11T12:56:56.885Z,97426.25
2023-01-11T12:59:47.527Z,97424.50
2023-01-11T13:02:30.636Z,97422.03
2023-01-11T13:05:35.652Z,97414.69
2023-01-11T13:08:21.737Z,97418.56
2023-01-11T13:11:34.882Z,97417.03
2023-01-11T13:14:40.619Z,97419.72
2023-01-11T13:17:24.539Z,97419.94
2023-01-11T13:20:59.342Z,97429.47
2023-01-11T13:23:53.224Z,97425.22
2023-01-11T13:26:35.667Z,97421.69
2023-01-11T13:29:29.330Z,97417.34
2023-01-11T13:32:00.716Z,97417.25
2023-01-11T13:34:40.198Z,97415.50
2023-01-11T13:37:17.868Z,97410.06
2023-01-11T13:40:24.019Z,97416.91
2023-01-11T13:43:01.424Z,97411.72
2023-01-11T13:45:36.176Z,97421.97
2023-01-11T13:48:40.356Z,97418.69
2023-01-11T13:51:12.850Z,97415.16
2023-01-11T13:53:56.682Z,97420.31
2023-01-11T13:56:39.575Z,97421.16
2023-01-11T13:59:36.377Z,97417.72
2023-01-11T14:02:17.215Z,97428.09
2023-01-11T14:04:50.716Z,97420.22
2023-01-11T14:07:45.536Z,97420.09
2023-01-11T14:10:56.500Z,97431.16
2023-01-11T14:14:18.671Z,97424.34
2023-01-11T14:17:03.854Z,97423.41
2023-01-11T14:19:40.147Z,97433.88
2023-01-11T14:22:37.964Z,97441.53
2023-01-11T14:25:16.775Z,97445.06
2023-01-11T14:27:55.125Z,97450.25
2023-01-11T14:31:19.932Z,97447.88
2023-01-11T14:34:32.566Z,97457.31
2023-01-11T14:37:27.308Z,97455.66
2023-01-11T14:40:26.278Z,97468.72
2023-01-11T14:43:25.376Z,97447.06
2023-01-11T14:46:25.225Z,97452.34
2023-01-11T14:49:12.157Z,97451.41
2023-01-11T14:51:44.750Z,97463.41
2023-01-11T14:54:32.338Z,97466.00
2023-01-11T14:57:00.648Z,97467.56
2023-01-11T14:59:39.483Z,97460.59
2023-01-11T15:02:14.036Z,97474.28
2023-01-11T15:04:52.620Z,97476.66
2023-01-11T15:07:27.581Z,97486.09
2023-01-11T15:09:56.162Z,97482.44
2023-01-11T15:12:36.987Z,97485.03
2023-01-11T15:15:12.482Z,97482.31
2023-01-11T15:18:00.057Z,97490.00
2023-01-11T15:20:28.289Z,97476.91
2023-01-11T15:23:03.366Z,97482.09
2023-01-11T15:25:33.955Z,97498.59
2023-01-11T15:28:54.555Z,97487.63
2023-01-11T15:31:53.476Z,97498.09
2023-01-11T15:34:32.616Z,97498.09
2023-01-11T15:37:05.394Z,97498.94
2023-01-11T15:40:00.604Z,97501.41
2023-01-11T15:42:48.532Z,97500.69
2023-01-11T15:45:31.943Z,97504.22
2023-01-11T15:48:40.362Z,97511.28
2023-01-11T15:51:48.243Z,97523.50
2023-01-11T15:54:49.702Z,97533.13
2023-01-11T15:58:11.942Z,97531.50
2023-01-11T16:00:55.357Z,97536.78
2023-01-11T16:03:51.069Z,97547.25
2023-01-11T16:06:35.793Z,97547.25
2023-01-11T16:09:36.026Z,97554.31
2023-01-11T16:12:51.391Z,97566.31
2023-01-11T16:15:27.147Z,97569.84
2023-01-11T16:17:55.091Z,97581.88
2023-01-11T16:20:27.705Z,97579.38
2023-01-11T16:23:03.148Z,97582.09
2023-01-11T16:25:38.251Z,97587.28
2023-01-11T16:28:05.911Z,97587.47
2023-01-11T16:30:34.033Z,97595.03
2023-01-11T16:33:26.244Z,97590.56
2023-01-11T16:36:14.776Z,97597.41
2023-01-11T16:39:13.027Z,97581.75
2023-01-11T16:42:05.632Z,97595.44
2023-01-11T16:44:50.633Z,97603.91
2023-01-11T16:47:20.487Z,97603.09
2023-01-11T16:50:22.133Z,97614.28
2023-01-11T16:52:54.983Z,97607.31
2023-01-11T16:55:39.877Z,97621.94
2023-01-11T16:58:28.833Z,97605.25
2023-01-11T17:01:04.539Z,97623.06
2023-01-11T17:03:47.887Z,97628.13
2023-01-11T17:06:21.608Z,97627.91
2023-01-11T17:08:56.462Z,97622.66
2023-01-11T17:11:25.363Z,97627.72
2023-01-11T17:14:20.679Z,97635.28
2023-01-11T17:16:52.533Z,97639.63
2023-01-11T17:19:29.840Z,97646.59
2023-01-11T17:22:14.155Z,97649.19
2023-01-11T17:24:48.309Z,97646.69
2023-01-11T17:27:25.588Z,97645.88
2023-01-11T17:29:56.181Z,97658.09
2023-01-11T17:32:34.520Z,97662.44
2023-01-11T17:35:06.894Z,97674.69
2023-01-11T17:37:34.369Z,97662.75
2023-01-11T17:40:02.403Z,97668.06
2023-01-11T17:42:48.114Z,97680.19
2023-01-11T17:45:24.789Z,97688.78
2023-01-11T17:47:54.292Z,97682.56
2023-01-11T17:50:28.579Z,97678.19
2023-01-11T17:53:33.705Z,97690.22
2023-01-11T17:56:07.209Z,97689.41
2023-01-11T17:58:38.255Z,97691.97
2023-01-11T18:01:09.137Z,97693.75
2023-01-11T18:03:51.584Z,97699.97
2023-01-11T18:06:40.006Z,97713.97
2023-01-11T18:09:22.154Z,97712.22
2023-01-11T18:11:50.950Z,97707.25
2023-01-11T18:14:29.071Z,97711.78
2023-01-11T18:17:00.986Z,97709.31
2023-01-11T18:19:38.640Z,97708.59
2023-01-11T18:22:31.120Z,97712.00
2023-01-11T18:25:04.043Z,97714.59
2023-01-11T18:27:35.130Z,97712.63
2023-01-11T18:30:07.504Z,97717.72
2023-01-11T18:32:41.880Z,97726.94
2023-01-11T18:35:19.160Z,97729.41
2023-01-11T18:37:47.086Z,97730.25
2023-01-11T18:40:16.637Z,97736.25
2023-01-11T18:42:48.132Z,97732.50
2023-01-11T18:45:15.335Z,97732.72
2023-01-11T18:47:42.445Z,97735.44
2023-01-11T18:50:18.177Z,97736.25
2023-01-11T18:52:46.188Z,97743.31
2023-01-11T18:55:14.728Z,97762.50
2023-01-11T18:57:42.313Z,97753.06
2023-01-11T19:00:14.657Z,97759.25
2023-01-11T19:02:43.606Z,97763.53
2023-01-11T19:05:13.078Z,97776.50
2023-01-11T19:07:39.880Z,97771.50
2023-01-11T19:10:07.939Z,97773.25
2023-01-11T19:12:34.925Z,97779.47
2023-01-11T19:15:01.675Z,97774.59
2023-01-11T19:17:28.592Z,97784.44
2023-01-11T19:19:55.328Z,97794.06
2023-01-11T19:22:24.670Z,97791.78
2023-01-11T19:24:53.929Z,97784.25
2023-01-11T19:27:21.039Z,97799.00
2023-01-11T19:29:47.785Z,97799.31
2023-01-11T19:32:15.655Z,97802.94
2023-01-11T19:34:42.701Z,97798.69
2023-01-11T19:37:09.453Z,97808.31
2023-01-11T19:39:36.276Z,97806.44
2023-01-11T19:42:03.292Z,97808.31
2023-01-11T19:44:35.518Z,97813.50
2023-01-11T19:47:12.409Z,97815.31
2023-01-11T19:49:41.853Z,97811.84
2023-01-11T19:52:13.234Z,97815.31
2023-01-11T19:54:44.612Z,97813.66
2023-01-11T19:57:20.191Z,97820.72
2023-01-11T19:59:48.758Z,97826.94
2023-01-11T20:02:19.293Z,97831.47
2023-01-11T20:04:46.412Z,97824.75
2023-01-11T20:07:15.206Z,97828.34
2023-01-11T20:09:42.437Z,97827.50
2023-01-11T20:12:12.341Z,97833.53
2023-01-11T20:14:40.255Z,97835.28
2023-01-11T20:17:07.263Z,97827.63
2023-01-11T20:19:34.169Z,97841.28
2023-01-11T20:22:00.990Z,97849.06
2023-01-11T20:24:30.737Z,97849.25
2023-01-11T20:27:01.098Z,97845.84
2023-01-11T20:29:28.266Z,97851.84
2023-01-11T20:31:55.133Z,97848.44
2023-01-11T20:34:22.644Z,97858.16
2023-01-11T20:36:49.712Z,97857.31
2023-01-11T20:39:17.342Z,97862.72
2023-01-11T20:41:46.982Z,97863.72
2023-01-11T20:44:27.179Z,97873.34
2023-01-11T20:46:56.137Z,97864.94
2023-01-11T20:49:29.066Z,97871.88
2023-01-11T20:51:56.725Z,97881.28
2023-01-11T20:54:23.816Z,97889.91
2023-01-11T20:56:50.944Z,97882.75
2023-01-11T20:59:19.982Z,97873.06
2023-01-11T21:01:48.694Z,97883.31
2023-01-11T21:04:17.432Z,97890.16
2023-01-11T21:06:48.197Z,97892.63
2023-01-11T21:09:17.981Z,97896.97
2023-01-11T21:11:52.262Z,97901.13
2023-01-11T21:14:20.014Z,97904.44
2023-01-11T21:16:46.738Z,97904.34
2023-01-11T21:19:15.261Z,97909.34
2023-01-11T21:21:43.089Z,97916.00
2023-01-11T21:24:15.162Z,97919.47
2023-01-11T21:26:43.453Z,97920.41
2023-01-11T21:29:11.663Z,97924.84
2023-01-11T21:31:40.157Z,97927.44
2023-01-11T21:34:07.814Z,97932.72
2023-01-11T21:36:34.613Z,97934.44
2023-01-11T21:39:02.584Z,97945.00
2023-01-11T21:41:50.447Z,97937.53
2023-01-11T21:44:18.980Z,97933.56
2023-01-11T21:46:48.224Z,97940.97
2023-01-11T21:49:15.759Z,97942.25
2023-01-11T21:51:43.575Z,97928.56
2023-01-11T21:54:14.370Z,97928.69
2023-01-11T21:56:44.364Z,97936.66
2023-01-11T21:59:11.290Z,97934.06
2023-01-11T22:01:41.128Z,97929.91
2023-01-11T22:04:11.568Z,97941.34
2023-01-11T22:06:47.106Z,97946.53
2023-01-11T22:09:13.841Z,97934.72
2023-01-11T22:11:40.582Z,97940.00
2023-01-11T22:14:08.494Z,97931.94
2023-01-11T22:16:36.415Z,97934.53
2023-01-11T22:19:06.081Z,97936.84
2023-01-11T22:21:33.427Z,97938.41
2023-01-11T22:24:00.270Z,97949.69
2023-01-11T22:26:30.076Z,97955.59
2023-01-11T22:29:12.161Z,97952.19
2023-01-11T22:31:41.805Z,97959.13
2023-01-11T22:34:09.720Z,97949.78
2023-01-11T22:36:36.509Z,97955.06
2023-01-11T22:39:03.630Z,97960.03
2023-01-11T22:41:31.076Z,97955.06
2023-01-11T22:43:58.090Z,97947.38
2023-01-11T22:46:27.556Z,97964.38
2023-01-11T22:48:54.461Z,97957.72
2023-01-11T22:51:26.430Z,97961.22
2023-01-11T22:53:55.583Z,97970.75
2023-01-11T22:56:25.879Z,97963.81
2023-01-11T22:58:56.881Z,97960.50
2023-01-11T23:01:27.300Z,97951.91
2023-01-11T23:03:57.214Z,97957.81
2023-01-11T23:06:28.589Z,97944.16
2023-01-11T23:08:55.605Z,97953.78
2023-01-11T23:11:45.631Z,97952.75
2023-01-11T23:14:16.304Z,97957.19
2023-01-11T23:16:45.005Z,97958.22
2023-01-11T23:19:14.635Z,97959.03
2023-01-11T23:21:44.291Z,97962.66
2023-01-11T23:24:13.319Z,97946.56
2023-01-11T23:26:40.387Z,97945.63
2023-01-11T23:29:07.513Z,97947.50
2023-01-11T23:31:35.080Z,97955.66
2023-01-11T23:34:04.140Z,97951.66
2023-01-11T23:36:36.005Z,97955.28
2023-01-11T23:39:05.053Z,97959.72
2023-01-11T23:41:50.427Z,97961.56
2023-01-11T23:44:20.367Z,97967.09
2023-01-11T23:47:05.393Z,97977.19
2023-01-11T23:49:32.629Z,97974.50
2023-01-11T23:52:00.898Z,97963.97
2023-01-11T23:54:31.767Z,97968.19
2023-01-11T23:57:00.893Z,97971.53
2023-01-11T23:59:27.876Z,97968.75
